메인 페이지
METAR-TAF:

METAR-TAF

공항 :

마리스칼 수크레 국제공항

키토, 에콰도르

위도: 0-06-48S, 경도: 78-21-31W, 고도: 2400m

현재 날씨관측

예보는 16분 전, 20:00시(UTC)에 발표되었습니다.
7kt
온도 24°C
습도 36%
기압 1021 hPa
시정 10km 이상
고도 4000ft 상공 구름 보통

METAR: SEQM 182000Z 36007KT 9999 SCT040 24/08 Q1021 NOSIG RMK A3016

시각: 15:16 (20:16 UTC)

예보

예보는 3 시간 41분 전, 16:35시(UTC)에 발표되었습니다.
예보 대상 시간: 18일 18시부터 19일 18시까지 (UTC)
12kt
시정 10km 이상
고도 4000ft 상공 구름 보통
일시적
18일 20시부터 18일 23시까지 (UTC)
고도 4000ft 상공 구름 많음
19일 0000시부터 (UTC)
여러 방향의 바람 3kt
시정 10km 이상
고도 1000ft 상공 구름 조금
고도 2000ft 상공 구름 보통
전환 중
19일 04시부터 19일 05시까지 (UTC)
고도 600ft 상공 구름 보통
고도 2000ft 상공 구름 보통
전환 중
19일 11시부터 19일 12시까지 (UTC)
고도 3300ft 상공 구름 조금

TAF: SEQM 181635Z 1818/1918 36012KT 9999 SCT040 TEMPO 1820/1823 BKN040 FM190000 VRB03KT 9999 FEW010 SCT020 BECMG 1904/1905 SCT006 SCT020 BECMG 1911/1912 FEW033 TX24/1819Z TN09/1911Z

4,000개 이상의 공항 관측 자료 및 예보 (METAR 및 TAF 보고).

지도상에서 검색 가능한 기상관측소가 노란 점과 빨간 점으로 표시되어 있습니다.

기상관측소 명을 보려면 표시 위로 마우스를 이동하세요.

날씨 관측과 예보를 보려면 클릭하세요.

지도 변경 : 확대하려면 엑스 표시가 있는 녹색 버튼, 축소하려면 빼기 표시가 있는 녹색 버튼, 다음 페이지의 지도를 보려면 녹색 화살표를 클릭하세요.


METAR-TAF: